Time;durP1;ratioP1;P1;durP2;ratioP2;P2;SDS_P1;SDS_P2;PMS_P1;PMS_P2;Temp;Humidity;BMP_temperature;BMP_pressure;BME280_temperature;BME280_humidity;BME280_pressure;Samples;Min_cycle;Max_cycle;Signal;HPM_P1;HPM_P2
2024/02/24 00:00:07;;;;;;;22.27;4.82;;;12.70;86.90;;;;;;5073581;28;20048;-75
2024/02/24 00:02:33;;;;;;;17.00;4.50;;;12.70;87.00;;;;;;5073414;28;20040;-73
2024/02/24 00:04:59;;;;;;;25.05;4.63;;;12.60;87.20;;;;;;5073748;28;20078;-75
2024/02/24 00:07:24;;;;;;;19.23;4.65;;;12.60;87.10;;;;;;5073159;28;20040;-74
2024/02/24 00:09:50;;;;;;;22.60;5.13;;;12.60;87.00;;;;;;5073526;28;20038;-75
2024/02/24 00:12:16;;;;;;;21.30;4.25;;;12.60;87.00;;;;;;5073431;28;20108;-75
2024/02/24 00:14:42;;;;;;;21.80;4.28;;;12.60;86.70;;;;;;5073218;28;20066;-73
2024/02/24 00:17:07;;;;;;;18.35;3.60;;;12.50;86.60;;;;;;5073321;28;20383;-75
2024/02/24 00:19:33;;;;;;;23.98;4.75;;;12.50;86.50;;;;;;5072914;28;20048;-73
2024/02/24 00:21:59;;;;;;;18.58;4.20;;;12.50;86.40;;;;;;5072877;28;20032;-74
2024/02/24 00:24:24;;;;;;;17.80;4.28;;;12.50;86.20;;;;;;5072945;28;20076;-74
2024/02/24 00:26:50;;;;;;;22.08;4.53;;;12.50;86.30;;;;;;5072790;28;20104;-75
2024/02/24 00:29:16;;;;;;;21.98;4.18;;;12.50;86.00;;;;;;5073017;28;20045;-74
2024/02/24 00:31:41;;;;;;;21.23;3.97;;;12.50;85.90;;;;;;5072931;28;20044;-73
2024/02/24 00:34:07;;;;;;;22.45;4.10;;;12.40;85.90;;;;;;5073024;28;20119;-73
2024/02/24 00:36:33;;;;;;;21.60;3.80;;;12.40;86.00;;;;;;5072893;28;20380;-73
2024/02/24 00:38:59;;;;;;;21.88;3.70;;;12.40;85.90;;;;;;5072502;28;20121;-74
2024/02/24 00:41:24;;;;;;;15.70;3.80;;;12.40;85.80;;;;;;5072765;28;20532;-74
2024/02/24 00:43:52;;;;;;;15.80;2.85;;;12.40;85.60;;;;;;5072804;28;20047;-73
2024/02/24 00:46:18;;;;;;;18.33;3.50;;;12.40;85.50;;;;;;5072563;28;20036;-74
2024/02/24 00:48:44;;;;;;;16.42;3.58;;;12.40;85.50;;;;;;5072743;28;20529;-73
2024/02/24 00:51:09;;;;;;;25.48;4.63;;;12.40;85.50;;;;;;5072457;28;20476;-74
2024/02/24 00:53:35;;;;;;;14.98;3.35;;;12.40;85.40;;;;;;5072600;28;20369;-75
2024/02/24 00:56:01;;;;;;;22.67;3.78;;;12.40;85.40;;;;;;5072587;28;20039;-74
2024/02/24 00:58:26;;;;;;;20.60;4.07;;;12.40;85.20;;;;;;5072315;28;20528;-73
2024/02/24 01:00:52;;;;;;;13.63;3.40;;;12.40;84.90;;;;;;5072512;28;20040;-73
2024/02/24 01:03:18;;;;;;;16.02;3.42;;;12.50;84.80;;;;;;5072637;28;20484;-75
2024/02/24 01:05:44;;;;;;;20.48;4.20;;;12.50;84.70;;;;;;5072498;28;20050;-74
2024/02/24 01:08:10;;;;;;;19.35;3.35;;;12.40;84.80;;;;;;5072518;28;20042;-75
2024/02/24 01:10:36;;;;;;;26.30;3.95;;;12.40;84.90;;;;;;5072854;28;20043;-75
2024/02/24 01:13:02;;;;;;;16.35;3.75;;;12.40;84.80;;;;;;5072431;28;20033;-75
2024/02/24 01:15:28;;;;;;;22.33;3.92;;;12.40;85.00;;;;;;5072307;28;20395;-74
2024/02/24 01:17:56;;;;;;;15.68;3.28;;;12.30;84.90;;;;;;5072248;28;20037;-73
2024/02/24 01:20:24;;;;;;;19.70;3.30;;;12.20;84.70;;;;;;5075915;28;20063;-74
2024/02/24 01:22:53;;;;;;;18.20;3.47;;;12.20;85.30;;;;;;5076343;28;20032;-74
2024/02/24 01:25:19;;;;;;;21.35;3.22;;;12.10;85.30;;;;;;5076511;28;20050;-74
2024/02/24 01:27:45;;;;;;;17.75;4.13;;;12.10;85.30;;;;;;5076574;28;20597;-73
2024/02/24 01:30:11;;;;;;;23.00;3.55;;;12.10;85.10;;;;;;5076174;28;20123;-74
2024/02/24 01:32:37;;;;;;;19.60;3.63;;;12.10;85.30;;;;;;5076292;28;20107;-73
2024/02/24 01:35:03;;;;;;;18.30;3.80;;;12.10;85.40;;;;;;5076212;28;20167;-74
2024/02/24 01:37:29;;;;;;;20.50;3.35;;;12.10;85.30;;;;;;5076009;28;20059;-74
2024/02/24 01:39:54;;;;;;;14.13;3.50;;;12.10;85.20;;;;;;5075941;28;20480;-74
2024/02/24 01:42:20;;;;;;;17.52;3.90;;;12.10;85.30;;;;;;5076063;28;20036;-75
2024/02/24 01:44:46;;;;;;;16.77;3.20;;;12.20;85.40;;;;;;5075917;28;20028;-73
2024/02/24 01:47:12;;;;;;;13.57;3.35;;;12.20;85.20;;;;;;5075910;28;20034;-75
2024/02/24 01:49:41;;;;;;;18.17;3.60;;;12.20;85.10;;;;;;5075929;28;20411;-73
2024/02/24 01:52:07;;;;;;;13.68;3.25;;;12.20;84.80;;;;;;5075885;28;20570;-73
2024/02/24 01:54:35;;;;;;;23.73;4.68;;;12.20;84.70;;;;;;5076078;28;20035;-73
2024/02/24 01:57:05;;;;;;;17.88;3.20;;;12.30;84.80;;;;;;5076121;28;20111;-74
2024/02/24 01:59:32;;;;;;;16.80;3.60;;;12.30;84.60;;;;;;5075948;28;20051;-74
2024/02/24 02:01:58;;;;;;;18.95;4.25;;;12.40;84.80;;;;;;5075827;28;20052;-75
2024/02/24 02:04:25;;;;;;;17.48;3.97;;;12.30;84.80;;;;;;5075620;28;20491;-73
2024/02/24 02:06:51;;;;;;;15.93;3.70;;;12.20;84.80;;;;;;5075693;28;20431;-73
2024/02/24 02:09:17;;;;;;;18.55;4.03;;;12.20;85.10;;;;;;5075725;28;20024;-74
2024/02/24 02:11:43;;;;;;;20.35;3.67;;;12.10;85.30;;;;;;5075481;28;20506;-74
2024/02/24 02:14:11;;;;;;;18.73;4.00;;;12.10;85.20;;;;;;5075316;28;20040;-73
2024/02/24 02:16:40;;;;;;;16.45;3.80;;;12.10;85.40;;;;;;5075746;28;20529;-73
2024/02/24 02:19:05;;;;;;;17.75;3.70;;;12.10;85.40;;;;;;5075304;28;20105;-74
2024/02/24 02:21:32;;;;;;;18.58;4.22;;;12.10;85.50;;;;;;5075390;28;20028;-74
2024/02/24 02:23:58;;;;;;;16.52;4.15;;;12.10;85.40;;;;;;5075422;28;20036;-74
2024/02/24 02:26:23;;;;;;;15.93;3.88;;;12.00;85.30;;;;;;5075484;28;20035;-74
2024/02/24 02:28:49;;;;;;;19.38;3.60;;;12.00;85.40;;;;;;5074882;28;20033;-73
2024/02/24 02:31:15;;;;;;;18.48;3.75;;;12.00;85.70;;;;;;5074745;28;20049;-73
2024/02/24 02:33:41;;;;;;;22.63;4.13;;;12.00;85.40;;;;;;5075326;28;20036;-73
2024/02/24 02:36:07;;;;;;;20.13;4.15;;;12.00;85.70;;;;;;5074805;28;20095;-74
2024/02/24 02:38:32;;;;;;;17.77;4.10;;;11.90;85.70;;;;;;5075124;28;20120;-74
2024/02/24 02:40:58;;;;;;;21.50;4.30;;;11.90;85.90;;;;;;5075009;28;20040;-73
2024/02/24 02:43:24;;;;;;;21.73;3.90;;;11.90;85.80;;;;;;5074656;28;20032;-74
2024/02/24 02:45:50;;;;;;;18.42;3.92;;;11.90;85.80;;;;;;5074703;28;20123;-74
2024/02/24 02:48:16;;;;;;;18.10;3.33;;;11.90;85.80;;;;;;5074802;28;20033;-74
2024/02/24 02:50:42;;;;;;;17.60;4.00;;;11.90;86.00;;;;;;5074995;28;20029;-73
2024/02/24 02:53:07;;;;;;;17.73;4.25;;;11.90;86.00;;;;;;5074422;28;20040;-73
2024/02/24 02:55:33;;;;;;;24.17;4.68;;;11.90;86.10;;;;;;5074365;28;20029;-75
2024/02/24 02:57:59;;;;;;;12.75;3.03;;;11.90;86.20;;;;;;5074336;28;20037;-74
2024/02/24 03:00:24;;;;;;;17.48;3.17;;;12.00;86.40;;;;;;5074469;28;20043;-73
2024/02/24 03:02:50;;;;;;;16.45;3.10;;;12.00;86.30;;;;;;5074268;28;20039;-74
2024/02/24 03:05:16;;;;;;;23.65;4.03;;;12.00;86.30;;;;;;5074483;28;20373;-74
2024/02/24 03:07:41;;;;;;;28.58;4.28;;;12.00;86.60;;;;;;5074608;28;20060;-74
2024/02/24 03:10:07;;;;;;;16.60;4.22;;;12.00;86.40;;;;;;5074413;28;20521;-74
2024/02/24 03:12:33;;;;;;;19.05;3.25;;;12.00;86.50;;;;;;5073978;28;20037;-72
2024/02/24 03:14:59;;;;;;;16.15;3.97;;;12.10;86.50;;;;;;5074250;28;20409;-73
2024/02/24 03:17:25;;;;;;;18.20;3.53;;;12.00;86.50;;;;;;5074425;28;20039;-74
2024/02/24 03:19:51;;;;;;;13.38;3.22;;;12.00;86.60;;;;;;5074127;28;20474;-74
2024/02/24 03:22:16;;;;;;;18.27;3.85;;;12.00;86.60;;;;;;5074062;28;20032;-73
2024/02/24 03:24:43;;;;;;;18.02;3.53;;;12.00;86.80;;;;;;5074039;28;20447;-74
2024/02/24 03:27:10;;;;;;;13.27;3.30;;;12.00;86.80;;;;;;5073976;28;20487;-73
2024/02/24 03:29:36;;;;;;;17.73;4.38;;;11.90;86.90;;;;;;5056045;28;20384;-75
2024/02/24 03:32:03;;;;;;;17.42;3.35;;;11.80;86.80;;;;;;5073777;28;20040;-73
2024/02/24 03:34:29;;;;;;;19.45;3.47;;;11.80;87.20;;;;;;5073792;28;20036;-72
2024/02/24 03:36:54;;;;;;;15.73;3.28;;;11.80;87.20;;;;;;5055915;28;20033;-74
2024/02/24 03:39:21;;;;;;;20.45;3.47;;;11.80;87.40;;;;;;5073677;28;20040;-73
2024/02/24 03:41:47;;;;;;;17.92;3.22;;;11.80;87.20;;;;;;5073470;28;20028;-73
2024/02/24 03:44:13;;;;;;;16.65;2.88;;;11.70;87.10;;;;;;5073586;28;20081;-73
2024/02/24 03:46:39;;;;;;;18.67;3.42;;;11.70;87.20;;;;;;5073578;28;20108;-74
2024/02/24 03:49:05;;;;;;;15.80;3.33;;;11.70;87.30;;;;;;5073600;28;20036;-74
2024/02/24 03:51:30;;;;;;;16.67;3.22;;;11.70;87.30;;;;;;5055677;28;20503;-73
2024/02/24 03:53:56;;;;;;;18.15;3.25;;;11.70;87.30;;;;;;5073171;28;20040;-74
2024/02/24 03:56:22;;;;;;;18.23;3.50;;;11.70;87.40;;;;;;5073495;28;20439;-74
2024/02/24 03:58:48;;;;;;;14.95;3.33;;;11.60;87.40;;;;;;5073339;28;20039;-74
2024/02/24 04:01:13;;;;;;;16.73;3.00;;;11.60;87.50;;;;;;5073237;28;20082;-74
2024/02/24 04:03:39;;;;;;;13.20;3.47;;;11.60;87.60;;;;;;5073291;28;20040;-74
2024/02/24 04:06:06;;;;;;;17.08;3.17;;;11.60;87.80;;;;;;5073004;28;20104;-74
2024/02/24 04:08:32;;;;;;;12.85;2.97;;;11.60;87.80;;;;;;5073113;28;20123;-73
2024/02/24 04:10:58;;;;;;;18.25;3.20;;;11.60;87.70;;;;;;5073149;28;20461;-72
2024/02/24 04:13:24;;;;;;;12.07;2.72;;;11.60;87.90;;;;;;5073047;28;20408;-73
2024/02/24 04:15:53;;;;;;;22.25;3.90;;;11.60;87.70;;;;;;5073024;28;20036;-73
2024/02/24 04:18:18;;;;;;;18.60;3.38;;;11.60;87.80;;;;;;5073143;28;20495;-73
2024/02/24 04:20:45;;;;;;;18.80;3.92;;;11.60;87.90;;;;;;5072878;28;20044;-73
2024/02/24 04:23:11;;;;;;;15.05;3.35;;;11.60;88.00;;;;;;5054885;28;20032;-73
2024/02/24 04:25:37;;;;;;;16.58;3.20;;;11.60;88.00;;;;;;5072610;28;20543;-73
2024/02/24 04:28:02;;;;;;;14.02;2.83;;;11.50;88.20;;;;;;5072937;28;20112;-73
2024/02/24 04:30:28;;;;;;;15.32;3.05;;;11.50;88.20;;;;;;5072828;28;20045;-73
2024/02/24 04:32:55;;;;;;;15.05;2.60;;;11.50;87.90;;;;;;5072925;28;20033;-73
2024/02/24 04:35:21;;;;;;;16.73;3.10;;;11.40;88.00;;;;;;5072810;28;20153;-73
2024/02/24 04:37:47;;;;;;;15.10;2.90;;;11.40;88.20;;;;;;5072716;28;20036;-74
2024/02/24 04:40:13;;;;;;;11.68;3.15;;;11.40;88.50;;;;;;5072736;28;20043;-74
2024/02/24 04:42:39;;;;;;;15.23;2.70;;;11.40;88.30;;;;;;5072598;28;20044;-73
2024/02/24 04:45:05;;;;;;;19.40;3.20;;;11.40;87.90;;;;;;5072504;28;20043;-74
2024/02/24 04:47:30;;;;;;;13.00;3.20;;;11.50;88.00;;;;;;5072495;28;20476;-74
2024/02/24 04:49:56;;;;;;;11.25;2.20;;;11.50;87.80;;;;;;5072426;28;20039;-74
2024/02/24 04:52:22;;;;;;;12.38;2.65;;;11.50;87.70;;;;;;5072479;28;20107;-73
2024/02/24 04:54:47;;;;;;;19.77;3.83;;;11.50;87.80;;;;;;5071651;28;20551;-74
2024/02/24 04:57:13;;;;;;;13.35;3.20;;;11.50;87.80;;;;;;5054466;28;20066;-74
2024/02/24 04:59:39;;;;;;;12.45;2.75;;;11.40;87.70;;;;;;5072471;28;20045;-74
2024/02/24 05:02:05;;;;;;;16.40;3.10;;;11.40;87.80;;;;;;5072522;28;20021;-74
2024/02/24 05:04:30;;;;;;;16.67;3.10;;;11.40;88.20;;;;;;5072437;28;20102;-73
2024/02/24 05:06:56;;;;;;;14.07;2.80;;;11.40;88.20;;;;;;5072476;28;20174;-73
2024/02/24 05:09:22;;;;;;;14.75;2.83;;;11.40;88.20;;;;;;5072516;28;20036;-75
2024/02/24 05:11:48;;;;;;;14.43;2.80;;;11.40;88.70;;;;;;5072442;28;20486;-74
2024/02/24 05:14:17;;;;;;;12.73;2.50;;;11.40;88.30;;;;;;5072277;28;20029;-74
2024/02/24 05:16:43;;;;;;;17.73;3.40;;;11.40;88.10;;;;;;5072540;28;20411;-74
2024/02/24 05:19:09;;;;;;;14.27;3.20;;;11.50;88.40;;;;;;5072150;28;20036;-73
2024/02/24 05:21:35;;;;;;;15.52;3.45;;;11.40;88.30;;;;;;5072349;28;20041;-73
2024/02/24 05:24:00;;;;;;;10.98;3.00;;;11.40;88.30;;;;;;5072047;28;20029;-73
2024/02/24 05:26:28;;;;;;;18.67;2.95;;;11.40;88.40;;;;;;5072397;28;20041;-73
2024/02/24 05:28:54;;;;;;;14.48;3.30;;;11.40;88.50;;;;;;5072460;28;20159;-74
2024/02/24 05:31:20;;;;;;;12.13;2.42;;;11.40;88.30;;;;;;5072005;28;20527;-73
2024/02/24 05:33:49;;;;;;;20.77;3.50;;;11.40;88.40;;;;;;5054195;28;20037;-73
2024/02/24 05:36:15;;;;;;;15.60;3.33;;;11.50;87.90;;;;;;5072289;28;20033;-72
2024/02/24 05:38:41;;;;;;;17.95;3.30;;;11.50;88.00;;;;;;5072299;28;20040;-74
2024/02/24 05:41:07;;;;;;;14.45;2.60;;;11.50;87.70;;;;;;5053739;28;20040;-75
2024/02/24 05:43:32;;;;;;;13.20;3.17;;;11.40;87.60;;;;;;5072087;28;20112;-74
2024/02/24 05:46:00;;;;;;;13.27;3.00;;;11.40;87.90;;;;;;5072005;28;20440;-73
2024/02/24 05:48:27;;;;;;;13.43;2.92;;;11.40;87.80;;;;;;5072382;28;20033;-74
2024/02/24 05:50:54;;;;;;;10.55;2.70;;;11.40;87.90;;;;;;5072282;28;20120;-74
2024/02/24 05:53:20;;;;;;;13.52;2.58;;;11.40;87.70;;;;;;5072303;28;20025;-73
2024/02/24 05:55:47;;;;;;;17.40;2.92;;;11.40;87.80;;;;;;5072080;28;20108;-73
2024/02/24 05:58:13;;;;;;;14.43;3.20;;;11.40;87.80;;;;;;5072226;28;20044;-74
2024/02/24 06:00:39;;;;;;;14.75;2.90;;;11.30;88.00;;;;;;5072155;28;20389;-74
2024/02/24 06:03:10;;;;;;;13.00;2.88;;;11.40;88.00;;;;;;5071779;28;20029;-74
2024/02/24 06:05:36;;;;;;;10.98;2.53;;;11.30;87.70;;;;;;5073777;28;20029;-73
2024/02/24 06:08:02;;;;;;;20.90;4.10;;;11.30;87.80;;;;;;5075726;28;20492;-73
2024/02/24 06:10:27;;;;;;;19.50;2.80;;;11.30;87.50;;;;;;5075648;28;20063;-75
2024/02/24 06:12:53;;;;;;;17.75;2.97;;;11.30;87.40;;;;;;5075595;28;20117;-74
2024/02/24 06:15:19;;;;;;;16.58;2.60;;;11.30;87.30;;;;;;5075449;28;20025;-74
2024/02/24 06:17:45;;;;;;;17.02;3.03;;;11.30;87.50;;;;;;5075613;28;20435;-74
2024/02/24 06:20:11;;;;;;;17.98;3.47;;;11.40;87.50;;;;;;5075097;28;20071;-74
2024/02/24 06:22:37;;;;;;;18.00;3.03;;;11.40;87.60;;;;;;5075583;28;20139;-75
2024/02/24 06:25:04;;;;;;;15.20;3.00;;;11.40;87.40;;;;;;5075538;28;20056;-73
2024/02/24 06:27:31;;;;;;;13.10;3.13;;;11.50;87.50;;;;;;5075450;28;20028;-74
2024/02/24 06:29:57;;;;;;;12.52;2.78;;;11.50;87.50;;;;;;5074861;28;20032;-74
2024/02/24 06:32:23;;;;;;;16.30;3.00;;;11.60;88.00;;;;;;5075105;28;20040;-73
2024/02/24 06:34:49;;;;;;;14.25;2.90;;;11.60;87.10;;;;;;5074992;28;20126;-75
2024/02/24 06:37:14;;;;;;;12.85;3.85;;;11.60;87.00;;;;;;5075197;28;20029;-74
2024/02/24 06:39:40;;;;;;;11.57;2.65;;;11.70;87.10;;;;;;5075077;28;20484;-74
2024/02/24 06:42:06;;;;;;;12.82;2.67;;;11.70;86.80;;;;;;5074818;28;20040;-74
2024/02/24 06:44:31;;;;;;;14.63;3.28;;;11.80;86.90;;;;;;5075042;28;20508;-74
2024/02/24 06:46:57;;;;;;;8.98;2.60;;;11.90;86.80;;;;;;5074698;28;20107;-75
2024/02/24 06:49:23;;;;;;;11.38;2.70;;;11.90;86.60;;;;;;5074835;28;20408;-74
2024/02/24 06:51:49;;;;;;;14.90;3.17;;;12.00;86.40;;;;;;5074901;28;20028;-75
2024/02/24 06:54:15;;;;;;;12.75;3.08;;;12.10;86.30;;;;;;5075048;28;20037;-74
2024/02/24 06:56:40;;;;;;;12.23;3.00;;;12.20;86.10;;;;;;5075035;28;20527;-73
2024/02/24 06:59:06;;;;;;;15.77;3.03;;;12.30;86.40;;;;;;5074686;28;20119;-75
2024/02/24 07:01:32;;;;;;;19.63;3.67;;;12.40;86.00;;;;;;5074874;28;20108;-74
2024/02/24 07:03:58;;;;;;;13.68;3.63;;;12.70;85.80;;;;;;5074603;28;20054;-75
2024/02/24 07:06:24;;;;;;;16.98;3.40;;;13.10;85.20;;;;;;5074356;28;20103;-75
2024/02/24 07:08:50;;;;;;;19.63;3.75;;;13.60;84.30;;;;;;5074660;28;20502;-75
2024/02/24 07:11:15;;;;;;;14.40;3.63;;;14.00;83.00;;;;;;5074559;28;20497;-75
2024/02/24 07:13:41;;;;;;;15.70;3.50;;;14.60;81.70;;;;;;5074657;28;20035;-75
2024/02/24 07:16:10;;;;;;;15.60;3.45;;;15.10;80.30;;;;;;5073774;28;20021;-75
2024/02/24 07:18:38;;;;;;;11.77;3.30;;;15.60;79.30;;;;;;5074182;28;20028;-74
2024/02/24 07:21:05;;;;;;;15.98;3.78;;;16.10;78.30;;;;;;5074327;28;20040;-76
2024/02/24 07:23:31;;;;;;;17.95;3.53;;;16.50;77.20;;;;;;5074347;28;20334;-74
2024/02/24 07:26:01;;;;;;;9.98;3.40;;;16.70;76.60;;;;;;5074157;28;20043;-74
2024/02/24 07:28:27;;;;;;;12.90;3.13;;;16.50;76.20;;;;;;5074277;28;20031;-75
2024/02/24 07:30:53;;;;;;;17.15;3.92;;;16.00;76.90;;;;;;5073961;28;20048;-74
2024/02/24 07:33:19;;;;;;;18.00;3.20;;;15.50;77.70;;;;;;5073956;28;20021;-74
2024/02/24 07:35:45;;;;;;;18.08;3.97;;;15.10;78.50;;;;;;5074269;28;20395;-74
2024/02/24 07:38:11;;;;;;;15.57;3.15;;;15.20;78.80;;;;;;5074153;28;20435;-76
2024/02/24 07:40:37;;;;;;;13.60;4.03;;;15.50;77.80;;;;;;5073902;28;20091;-74
2024/02/24 07:43:03;;;;;;;12.15;3.45;;;16.10;77.20;;;;;;5073846;28;20498;-74
2024/02/24 07:45:28;;;;;;;21.20;4.45;;;16.60;76.10;;;;;;5073707;28;20032;-75
2024/02/24 07:47:54;;;;;;;13.43;3.55;;;16.70;75.20;;;;;;5055663;28;20036;-75
2024/02/24 07:50:20;;;;;;;13.90;4.00;;;16.50;75.60;;;;;;5073750;28;20064;-75
2024/02/24 07:52:46;;;;;;;14.07;3.80;;;16.10;75.80;;;;;;5073608;28;20043;-74
2024/02/24 07:55:12;;;;;;;17.92;4.63;;;15.90;76.50;;;;;;5055510;28;20536;-75
2024/02/24 07:57:37;;;;;;;12.82;3.55;;;15.80;77.00;;;;;;5073429;28;20033;-76
2024/02/24 08:00:04;;;;;;;14.48;4.25;;;15.60;77.20;;;;;;5073196;28;20098;-75
2024/02/24 08:02:31;;;;;;;15.65;3.40;;;15.50;77.60;;;;;;5073439;28;20044;-74
2024/02/24 08:04:57;;;;;;;24.00;4.25;;;15.50;77.70;;;;;;5073287;28;20032;-76
2024/02/24 08:07:23;;;;;;;18.98;3.70;;;15.50;77.80;;;;;;5073563;28;20032;-75
2024/02/24 08:09:48;;;;;;;13.75;3.25;;;15.40;77.80;;;;;;5073601;28;20032;-74
2024/02/24 08:12:14;;;;;;;11.40;3.33;;;15.40;77.80;;;;;;5073423;28;20516;-74
2024/02/24 08:14:40;;;;;;;16.92;3.60;;;15.40;78.20;;;;;;5072978;28;20430;-74
2024/02/24 08:17:06;;;;;;;19.50;3.55;;;15.30;78.20;;;;;;5055280;28;20484;-75
2024/02/24 08:19:33;;;;;;;14.60;3.67;;;15.20;78.20;;;;;;5073123;28;20040;-75
2024/02/24 08:22:02;;;;;;;14.48;3.33;;;15.30;78.50;;;;;;5072997;28;20366;-75
2024/02/24 08:24:28;;;;;;;12.52;3.75;;;15.30;78.60;;;;;;5072972;28;20057;-74
2024/02/24 08:26:54;;;;;;;13.02;3.85;;;15.40;78.60;;;;;;5073276;28;20071;-74
2024/02/24 08:29:19;;;;;;;15.38;3.55;;;15.50;78.30;;;;;;5072465;28;20090;-75
2024/02/24 08:31:45;;;;;;;15.00;3.53;;;15.60;78.20;;;;;;5072552;28;20045;-76
2024/02/24 08:34:11;;;;;;;21.95;3.83;;;15.60;77.80;;;;;;5072873;28;20155;-75
2024/02/24 08:36:37;;;;;;;15.38;3.78;;;15.70;77.90;;;;;;5073386;28;20032;-74
2024/02/24 08:39:03;;;;;;;13.50;2.90;;;15.70;77.60;;;;;;5072615;28;20059;-76
2024/02/24 08:41:33;;;;;;;13.27;2.72;;;15.90;77.30;;;;;;5072983;28;20070;-76
2024/02/24 08:44:01;;;;;;;17.02;2.75;;;16.10;76.70;;;;;;5072460;28;20032;-76
2024/02/24 08:46:28;;;;;;;15.73;2.50;;;16.20;76.30;;;;;;5072551;28;20127;-74
2024/02/24 08:48:54;;;;;;;11.75;2.17;;;16.20;75.80;;;;;;5073881;28;20070;-76
2024/02/24 08:51:21;;;;;;;21.92;3.90;;;16.20;75.50;;;;;;5072627;28;20083;-75
2024/02/24 08:53:47;;;;;;;12.40;2.85;;;16.20;75.80;;;;;;5072625;28;20029;-74
2024/02/24 08:56:21;;;;;;;17.67;2.97;;;16.20;75.80;;;;;;5072082;28;20071;-77
2024/02/24 08:58:47;;;;;;;;;;;16.30;75.50;;;;;;5072610;28;20028;-75
2024/02/24 09:01:14;;;;;;;15.57;3.33;;;16.30;74.90;;;;;;5071911;28;19913;-76
2024/02/24 09:03:40;;;;;;;14.35;2.78;;;16.30;75.30;;;;;;5072317;28;20047;-75
2024/02/24 09:06:06;;;;;;;11.40;2.63;;;16.30;74.80;;;;;;5072420;28;20048;-75
2024/02/24 09:08:32;;;;;;;8.35;1.88;;;16.40;74.50;;;;;;5072545;28;20032;-76
2024/02/24 09:10:58;;;;;;;10.23;2.30;;;16.40;73.60;;;;;;5072153;28;20211;-75
2024/02/24 09:13:24;;;;;;;15.13;2.67;;;16.40;73.40;;;;;;5071890;28;20103;-76
2024/02/24 09:15:50;;;;;;;11.73;2.50;;;16.40;73.30;;;;;;5072250;28;20029;-76
2024/02/24 09:18:19;;;;;;;9.50;2.40;;;16.40;73.30;;;;;;5072316;28;20386;-74
2024/02/24 09:20:45;;;;;;;10.68;2.90;;;16.40;72.90;;;;;;5054411;28;20043;-75
2024/02/24 09:23:11;;;;;;;14.45;2.65;;;16.60;72.90;;;;;;5072557;28;20033;-76
2024/02/24 09:25:36;;;;;;;13.35;2.55;;;16.70;72.30;;;;;;5072388;28;20132;-75
2024/02/24 09:28:02;;;;;;;9.70;2.25;;;16.70;72.10;;;;;;5072521;28;20068;-75
2024/02/24 09:30:28;;;;;;;8.40;2.17;;;16.80;71.60;;;;;;5072378;28;20076;-75
2024/02/24 09:32:54;;;;;;;11.70;2.38;;;16.80;71.20;;;;;;5072690;28;20531;-74
2024/02/24 09:35:23;;;;;;;13.45;2.30;;;16.80;70.90;;;;;;5072641;28;20036;-76
2024/02/24 09:37:49;;;;;;;13.65;2.13;;;16.80;71.20;;;;;;5072624;28;20056;-75
2024/02/24 09:40:16;;;;;;;9.63;1.90;;;16.60;70.90;;;;;;5073851;28;20045;-74
2024/02/24 09:42:42;;;;;;;9.52;2.17;;;16.60;70.80;;;;;;5076687;28;20085;-75
2024/02/24 09:45:13;;;;;;;20.05;2.08;;;16.40;70.80;;;;;;5076232;28;20048;-74
2024/02/24 09:47:43;;;;;;;12.95;2.63;;;16.30;70.30;;;;;;5075983;28;20060;-75
2024/02/24 09:50:11;;;;;;;9.82;1.90;;;16.40;70.20;;;;;;5075540;28;20132;-76
2024/02/24 09:52:39;;;;;;;7.97;2.45;;;16.40;69.90;;;;;;5075494;28;20059;-75
2024/02/24 09:55:05;;;;;;;8.60;1.90;;;16.50;68.90;;;;;;5075676;28;20037;-75
2024/02/24 09:57:35;;;;;;;6.57;2.00;;;16.50;68.50;;;;;;5075620;28;20103;-74
2024/02/24 10:00:03;;;;;;;9.15;1.85;;;16.50;67.70;;;;;;5075387;28;20075;-74
2024/02/24 10:02:29;;;;;;;9.70;2.33;;;16.50;67.30;;;;;;5075436;28;20068;-75
2024/02/24 10:04:57;;;;;;;9.10;2.00;;;16.50;67.10;;;;;;5075799;28;20146;-75
2024/02/24 10:07:22;;;;;;;11.15;2.20;;;16.50;67.20;;;;;;5057451;28;20435;-75
2024/02/24 10:09:48;;;;;;;7.15;1.80;;;16.60;67.20;;;;;;5075271;28;20036;-74
2024/02/24 10:12:14;;;;;;;8.75;1.58;;;16.60;67.10;;;;;;5075368;28;20082;-75
2024/02/24 10:14:39;;;;;;;20.02;2.47;;;16.80;66.60;;;;;;5074998;28;20036;-75
2024/02/24 10:17:06;;;;;;;8.50;2.13;;;16.90;64.80;;;;;;5075070;28;20067;-74
2024/02/24 10:19:32;;;;;;;8.88;2.53;;;17.00;64.30;;;;;;5075367;28;20037;-75
2024/02/24 10:22:01;;;;;;;8.77;2.58;;;17.00;64.50;;;;;;5074929;28;20036;-76
2024/02/24 10:24:27;;;;;;;10.73;2.70;;;17.00;64.80;;;;;;5075217;28;20036;-74
2024/02/24 10:26:53;;;;;;;9.45;2.60;;;17.00;65.10;;;;;;5074941;28;20087;-76
2024/02/24 10:29:22;;;;;;;7.43;2.13;;;17.00;65.40;;;;;;5074999;28;20028;-75
2024/02/24 10:31:48;;;;;;;8.00;2.33;;;17.00;65.80;;;;;;5074805;28;20113;-74
2024/02/24 10:34:16;;;;;;;10.40;2.80;;;17.00;65.80;;;;;;5074693;28;20032;-74
2024/02/24 10:36:43;;;;;;;12.80;2.28;;;17.10;66.30;;;;;;5075078;28;20058;-76
2024/02/24 10:39:09;;;;;;;10.70;2.42;;;17.20;66.40;;;;;;5074989;28;20029;-75
2024/02/24 10:41:35;;;;;;;8.70;2.35;;;17.20;66.30;;;;;;5074654;28;20391;-76
2024/02/24 10:44:02;;;;;;;7.90;2.22;;;17.20;65.60;;;;;;5074483;28;20138;-75
2024/02/24 10:46:29;;;;;;;12.88;2.42;;;17.20;65.10;;;;;;5074581;28;20044;-75
2024/02/24 10:48:55;;;;;;;10.80;2.85;;;17.30;64.90;;;;;;5074562;28;20360;-74
2024/02/24 10:51:24;;;;;;;11.95;2.75;;;17.30;64.90;;;;;;5073167;28;20047;-75
2024/02/24 10:53:54;;;;;;;7.82;2.30;;;17.40;65.20;;;;;;5074659;28;20028;-74
2024/02/24 10:56:20;;;;;;;10.32;1.92;;;17.40;64.30;;;;;;5074590;28;20040;-75
2024/02/24 10:58:46;;;;;;;9.07;2.10;;;17.40;64.00;;;;;;5074527;28;20048;-75
2024/02/24 11:01:12;;;;;;;9.00;2.20;;;17.50;63.90;;;;;;5074402;28;20083;-75
2024/02/24 11:03:39;;;;;;;8.27;2.15;;;17.60;63.70;;;;;;5073994;28;20024;-76
2024/02/24 11:06:05;;;;;;;11.55;2.28;;;17.70;63.60;;;;;;5056213;28;20032;-76
2024/02/24 11:08:38;;;;;;;7.10;1.98;;;17.70;63.70;;;;;;5074105;28;20036;-74
2024/02/24 11:11:08;;;;;;;10.85;2.35;;;17.70;63.40;;;;;;5073884;28;20039;-75
2024/02/24 11:13:34;;;;;;;8.07;1.90;;;17.70;63.50;;;;;;5056104;28;20032;-74
2024/02/24 11:16:00;;;;;;;9.35;2.28;;;17.80;62.90;;;;;;5074009;28;20036;-75
2024/02/24 11:18:47;;;;;;;8.48;2.42;;;17.80;62.40;;;;;;5074040;28;20449;-75
2024/02/24 11:21:16;;;;;;;12.70;3.20;;;17.90;62.60;;;;;;5074197;28;20609;-76
2024/02/24 11:23:44;;;;;;;9.95;3.00;;;18.00;62.10;;;;;;5074429;28;20108;-75
2024/02/24 11:26:12;;;;;;;9.38;3.33;;;18.00;61.80;;;;;;5073992;28;20028;-75
2024/02/24 11:28:46;;;;;;;11.23;3.05;;;18.20;62.30;;;;;;5073818;28;20074;-75
2024/02/24 11:31:29;;;;;;;15.40;2.53;;;18.30;62.10;;;;;;5073433;28;20053;-75
2024/02/24 11:34:05;;;;;;;13.07;2.63;;;18.30;61.80;;;;;;5073945;28;20032;-74
2024/02/24 11:36:33;;;;;;;8.13;1.83;;;18.20;62.30;;;;;;5073599;28;20033;-74
2024/02/24 11:39:00;;;;;;;8.10;2.42;;;18.20;61.80;;;;;;5073892;28;20077;-75
2024/02/24 11:41:30;;;;;;;10.63;2.42;;;18.10;61.60;;;;;;5073747;28;20045;-75
2024/02/24 11:43:56;;;;;;;14.48;4.70;;;18.00;61.60;;;;;;5074173;28;20055;-76
2024/02/24 11:46:22;;;;;;;7.65;2.50;;;17.80;61.80;;;;;;5073843;28;20044;-76
2024/02/24 11:48:51;;;;;;;7.88;1.90;;;17.60;61.80;;;;;;5073683;28;20507;-76
2024/02/24 11:51:17;;;;;;;9.73;2.15;;;17.50;62.40;;;;;;5073699;28;20143;-76
2024/02/24 11:53:43;;;;;;;9.60;2.28;;;17.40;62.60;;;;;;5073831;28;20028;-74
2024/02/24 11:56:09;;;;;;;11.35;2.63;;;17.20;62.70;;;;;;5073935;28;20043;-75
2024/02/24 11:58:34;;;;;;;10.43;2.45;;;17.20;63.00;;;;;;5073345;28;20025;-75
2024/02/24 12:01:04;;;;;;;8.90;2.42;;;17.30;63.00;;;;;;5073106;28;20480;-75
2024/02/24 12:03:29;;;;;;;13.55;2.28;;;17.20;63.10;;;;;;5072818;28;20024;-75
2024/02/24 12:06:00;;;;;;;11.48;3.35;;;17.30;63.10;;;;;;5073338;28;20032;-74
2024/02/24 12:08:27;;;;;;;12.07;2.55;;;17.30;63.00;;;;;;5073262;28;20039;-75
2024/02/24 12:10:52;;;;;;;10.95;2.47;;;17.30;62.50;;;;;;5073115;28;20135;-74
2024/02/24 12:13:18;;;;;;;9.00;2.10;;;17.30;62.90;;;;;;5072928;28;20060;-74
2024/02/24 12:15:45;;;;;;;7.55;1.80;;;17.30;62.90;;;;;;5073428;28;20033;-75
2024/02/24 12:18:11;;;;;;;8.02;2.38;;;17.40;62.70;;;;;;5072722;28;20456;-77
2024/02/24 12:20:42;;;;;;;8.07;2.05;;;17.50;62.50;;;;;;5072807;28;20112;-75
2024/02/24 12:23:09;;;;;;;10.38;2.33;;;17.70;62.10;;;;;;5073136;28;20039;-76
2024/02/24 12:25:35;;;;;;;8.98;2.47;;;17.90;61.80;;;;;;5072738;28;20037;-75
2024/02/24 12:28:03;;;;;;;7.43;2.25;;;18.10;61.70;;;;;;5072856;28;20037;-75
2024/02/24 12:30:39;;;;;;;8.65;2.63;;;18.30;60.50;;;;;;5072892;28;20127;-75
2024/02/24 12:33:06;;;;;;;8.07;2.42;;;18.40;59.40;;;;;;5072882;28;20040;-76